Time;durP1;ratioP1;P1;durP2;ratioP2;P2;SDS_P1;SDS_P2;PMS_P1;PMS_P2;Temp;Humidity;BMP_temperature;BMP_pressure;BME280_temperature;BME280_humidity;BME280_pressure;Samples;Min_cycle;Max_cycle;Signal;HPM_P1;HPM_P2
2023/12/28 17:37:11;;;;;;;6.85;1.05;;;10.30;99.90;;;;;;5120123;27;20466;-71
2023/12/28 17:39:39;;;;;;;4.15;0.95;;;10.20;99.90;;;;;;5080695;28;20044;-72
2023/12/28 17:42:07;;;;;;;1.73;0.88;;;10.20;99.90;;;;;;5080717;28;20176;-72
2023/12/28 17:44:39;;;;;;;3.70;0.80;;;10.30;99.90;;;;;;5082382;28;20028;-72
2023/12/28 17:47:16;;;;;;;1.55;0.60;;;10.30;99.90;;;;;;5066877;28;20276;-72
2023/12/28 17:49:47;;;;;;;3.33;1.13;;;10.30;99.90;;;;;;5114973;27;20660;-72
2023/12/28 17:52:16;;;;;;;3.50;1.20;;;10.30;99.90;;;;;;5074569;28;20032;-72
2023/12/28 17:54:42;;;;;;;5.05;1.00;;;10.40;99.90;;;;;;5083214;28;20040;-72
2023/12/28 17:57:07;;;;;;;1.10;0.60;;;10.40;99.90;;;;;;5082154;28;20034;-72
2023/12/28 17:59:33;;;;;;;2.95;0.90;;;10.40;99.90;;;;;;5078502;28;20691;-72
2023/12/28 18:01:59;;;;;;;1.75;0.55;;;10.40;99.90;;;;;;5065295;28;20043;-72
2023/12/28 18:04:24;;;;;;;2.30;0.82;;;10.40;99.90;;;;;;5113677;28;20040;-72
2023/12/28 18:06:52;;;;;;;0.95;0.30;;;10.40;99.90;;;;;;5081066;28;20421;-72
2023/12/28 18:09:21;;;;;;;3.30;0.98;;;10.40;99.90;;;;;;5082286;28;20127;-72
2023/12/28 18:11:47;;;;;;;4.80;0.80;;;10.40;99.90;;;;;;5115116;28;20035;-72
2023/12/28 18:14:13;;;;;;;1.70;0.40;;;10.40;99.90;;;;;;5114478;28;20032;-72
2023/12/28 18:16:39;;;;;;;2.50;0.65;;;10.40;99.90;;;;;;5080877;28;20533;-72
2023/12/28 18:19:05;;;;;;;12.18;4.63;;;10.40;99.90;;;;;;5111576;28;20721;-72
2023/12/28 18:21:30;;;;;;;2.15;0.70;;;10.40;99.90;;;;;;5077131;28;20062;-72
2023/12/28 18:23:56;;;;;;;2.25;1.05;;;10.40;99.90;;;;;;5081226;28;20541;-72
2023/12/28 18:26:22;;;;;;;6.18;1.60;;;10.50;99.90;;;;;;5097212;28;20050;-72
2023/12/28 18:28:47;;;;;;;4.78;0.70;;;10.40;99.90;;;;;;5114052;27;20067;-72
2023/12/28 18:31:13;;;;;;;3.83;1.27;;;10.50;99.90;;;;;;5064763;28;20070;-72
2023/12/28 18:33:39;;;;;;;2.05;0.65;;;10.50;99.90;;;;;;5081607;28;20082;-72
2023/12/28 18:36:08;;;;;;;2.08;0.47;;;10.50;99.90;;;;;;5081134;28;20081;-72
2023/12/28 18:38:35;;;;;;;1.60;0.70;;;10.50;99.90;;;;;;5063163;28;20065;-72
2023/12/28 18:41:00;;;;;;;1.27;0.68;;;10.50;99.90;;;;;;5113733;28;20047;-72
2023/12/28 18:43:26;;;;;;;2.85;0.60;;;10.50;99.90;;;;;;5114915;28;20546;-72
2023/12/28 18:45:52;;;;;;;2.75;1.20;;;10.50;99.90;;;;;;5084506;28;20039;-71
2023/12/28 18:48:18;;;;;;;4.88;1.17;;;10.60;99.90;;;;;;5070817;28;20044;-72
2023/12/28 18:50:44;;;;;;;3.05;0.70;;;10.60;99.90;;;;;;5102894;27;20044;-72
2023/12/28 18:53:11;;;;;;;2.38;1.00;;;10.60;99.90;;;;;;5054100;28;20533;-72
2023/12/28 18:55:38;;;;;;;3.97;0.68;;;10.60;99.90;;;;;;5068853;28;20443;-72
2023/12/28 18:58:07;;;;;;;5.07;0.77;;;10.60;99.90;;;;;;5069331;28;20032;-72
2023/12/28 19:00:34;;;;;;;2.83;0.73;;;10.60;99.90;;;;;;5049086;28;20060;-72
2023/12/28 19:03:00;;;;;;;4.55;0.60;;;10.60;99.90;;;;;;5101385;27;20759;-72
2023/12/28 19:05:26;;;;;;;1.95;0.65;;;10.60;99.90;;;;;;5063168;28;20555;-72
2023/12/28 19:07:51;;;;;;;2.38;0.60;;;10.60;99.90;;;;;;5083216;28;20032;-72
2023/12/28 19:10:17;;;;;;;1.98;0.70;;;10.60;99.90;;;;;;5065271;28;20024;-72
2023/12/28 19:12:43;;;;;;;2.22;1.13;;;10.60;99.90;;;;;;5049498;28;20024;-72
2023/12/28 19:15:09;;;;;;;3.00;0.80;;;10.60;99.90;;;;;;5066392;28;20127;-72
2023/12/28 19:17:37;;;;;;;0.85;0.30;;;10.60;99.90;;;;;;5081964;28;20489;-72
2023/12/28 19:20:04;;;;;;;7.55;3.25;;;10.60;99.90;;;;;;5064098;28;20039;-72
2023/12/28 19:22:30;;;;;;;9.02;3.17;;;10.60;99.90;;;;;;5087012;28;20177;-72
2023/12/28 19:24:56;;;;;;;1.50;0.50;;;10.60;99.90;;;;;;5082330;28;20114;-72
2023/12/28 19:27:21;;;;;;;8.48;3.55;;;10.50;99.90;;;;;;5081742;28;20031;-71
2023/12/28 19:29:47;;;;;;;5.25;2.42;;;10.60;99.90;;;;;;5067907;28;20044;-72
2023/12/28 19:32:12;;;;;;;4.55;0.85;;;10.60;99.90;;;;;;5101991;27;20035;-72
2023/12/28 19:34:38;;;;;;;1.75;0.50;;;10.60;99.90;;;;;;5049297;28;20039;-72
2023/12/28 19:37:04;;;;;;;0.52;0.32;;;10.60;99.90;;;;;;5095673;27;20622;-72
2023/12/28 19:39:30;;;;;;;2.33;0.80;;;10.60;99.90;;;;;;5066817;28;20036;-72
2023/12/28 19:41:55;;;;;;;2.35;0.80;;;10.60;99.90;;;;;;5064004;28;20036;-72
2023/12/28 19:44:21;;;;;;;4.47;1.20;;;10.60;99.90;;;;;;5101568;27;20035;-72
2023/12/28 19:46:46;;;;;;;3.97;1.08;;;10.60;99.90;;;;;;5083689;28;20088;-72
2023/12/28 19:49:12;;;;;;;8.38;1.65;;;10.60;99.90;;;;;;5067549;28;20105;-72
2023/12/28 19:51:38;;;;;;;3.30;1.58;;;10.60;99.90;;;;;;5063219;28;20481;-72
2023/12/28 19:54:04;;;;;;;2.22;1.15;;;10.60;99.90;;;;;;5066067;28;20394;-72
2023/12/28 19:56:30;;;;;;;54.72;15.73;;;10.60;99.90;;;;;;5098617;27;20075;-72
2023/12/28 19:58:56;;;;;;;4.72;2.40;;;10.60;99.90;;;;;;5049648;28;20098;-72
2023/12/28 20:01:22;;;;;;;3.10;0.98;;;10.60;99.90;;;;;;5099962;28;20059;-72
2023/12/28 20:03:47;;;;;;;2.55;1.38;;;10.60;99.90;;;;;;5065879;28;20220;-72
2023/12/28 20:06:13;;;;;;;1.77;1.05;;;10.60;99.90;;;;;;5065707;28;20515;-72
2023/12/28 20:08:39;;;;;;;1.65;0.95;;;10.60;99.90;;;;;;5100510;27;20032;-72
2023/12/28 20:11:05;;;;;;;2.83;1.35;;;10.60;99.90;;;;;;5063500;28;20130;-72
2023/12/28 20:13:30;;;;;;;1.92;0.45;;;10.60;99.90;;;;;;5068638;28;20177;-72
2023/12/28 20:15:56;;;;;;;0.95;0.50;;;10.50;99.90;;;;;;5067545;28;20119;-72
2023/12/28 20:18:23;;;;;;;1.98;1.38;;;10.50;99.90;;;;;;5064953;28;20051;-72
2023/12/28 20:20:51;;;;;;;1.80;0.50;;;10.50;99.90;;;;;;5096944;27;20645;-72
2023/12/28 20:23:17;;;;;;;2.65;0.55;;;10.50;99.90;;;;;;5047610;28;20485;-72
2023/12/28 20:25:42;;;;;;;1.30;0.60;;;10.40;99.90;;;;;;5063719;28;20067;-72
2023/12/28 20:28:08;;;;;;;1.38;0.63;;;10.40;99.90;;;;;;5064397;28;20139;-72
2023/12/28 20:30:35;;;;;;;3.50;0.80;;;10.40;99.90;;;;;;5064191;28;20658;-72
2023/12/28 20:33:02;;;;;;;1.33;0.80;;;10.40;99.90;;;;;;5097863;27;20036;-72
2023/12/28 20:35:27;;;;;;;2.67;1.00;;;10.30;99.90;;;;;;5061165;28;20079;-72
2023/12/28 20:37:53;;;;;;;2.28;0.77;;;10.30;99.90;;;;;;5092198;27;20086;-72
2023/12/28 20:40:19;;;;;;;2.75;1.50;;;10.20;99.90;;;;;;5064079;28;20032;-72
2023/12/28 20:42:45;;;;;;;0.82;0.45;;;10.20;99.90;;;;;;5081159;28;20510;-72
2023/12/28 20:45:10;;;;;;;3.50;1.00;;;10.20;99.90;;;;;;5096470;28;20127;-72
2023/12/28 20:47:36;;;;;;;4.35;0.88;;;10.20;99.90;;;;;;5065208;28;20066;-72
2023/12/28 20:50:04;;;;;;;1.77;0.82;;;10.20;99.90;;;;;;5065128;28;20481;-72
2023/12/28 20:52:30;;;;;;;2.33;0.68;;;10.20;99.90;;;;;;5058999;28;20044;-72
2023/12/28 20:54:56;;;;;;;1.33;0.65;;;10.20;99.90;;;;;;5069603;28;20497;-74
2023/12/28 20:57:29;;;;;;;0.93;0.45;;;10.30;99.90;;;;;;5046427;28;20036;-72
2023/12/28 20:59:56;;;;;;;1.85;0.57;;;10.20;99.90;;;;;;5047922;28;20068;-72
2023/12/28 21:02:22;;;;;;;2.30;0.60;;;10.30;99.90;;;;;;5064410;28;20032;-72
2023/12/28 21:04:48;;;;;;;0.63;0.35;;;10.30;99.90;;;;;;5066791;28;20039;-72
2023/12/28 21:07:13;;;;;;;1.60;0.57;;;10.30;99.90;;;;;;5064154;28;20028;-72
2023/12/28 21:09:42;;;;;;;4.82;0.80;;;10.30;99.90;;;;;;5063846;28;20588;-72
2023/12/28 21:12:09;;;;;;;1.08;0.50;;;10.30;99.90;;;;;;5047847;28;20504;-72
2023/12/28 21:14:39;;;;;;;3.17;0.80;;;10.30;99.90;;;;;;5062026;28;20123;-73
2023/12/28 21:17:08;;;;;;;4.43;0.80;;;10.30;99.90;;;;;;5064148;28;20040;-72
2023/12/28 21:19:34;;;;;;;2.05;0.63;;;10.30;99.90;;;;;;5058539;28;20032;-72
2023/12/28 21:22:01;;;;;;;2.22;0.57;;;10.30;99.90;;;;;;5061473;28;20059;-72
2023/12/28 21:24:27;;;;;;;2.65;0.73;;;10.30;99.90;;;;;;5046888;28;20032;-72
2023/12/28 21:26:53;;;;;;;3.92;1.42;;;10.40;99.90;;;;;;5096932;28;20114;-72
2023/12/28 21:29:19;;;;;;;3.05;2.00;;;10.40;99.90;;;;;;5095225;28;20047;-72
2023/12/28 21:31:44;;;;;;;2.08;0.55;;;10.40;99.90;;;;;;5063776;28;20115;-72
2023/12/28 21:34:11;;;;;;;1.80;0.70;;;10.40;99.90;;;;;;5078097;28;20043;-72
2023/12/28 21:36:36;;;;;;;1.58;0.55;;;10.40;99.90;;;;;;5071847;28;20456;-72
2023/12/28 21:39:03;;;;;;;2.72;0.50;;;10.50;99.90;;;;;;5099004;28;20039;-72
2023/12/28 21:41:30;;;;;;;5.18;0.60;;;10.40;99.90;;;;;;5093936;28;20409;-72
2023/12/28 21:43:56;;;;;;;1.67;0.70;;;10.40;99.90;;;;;;5045437;28;20043;-71
2023/12/28 21:46:21;;;;;;;3.40;0.98;;;10.30;99.90;;;;;;5064417;28;20036;-75
2023/12/28 21:48:48;;;;;;;2.08;0.40;;;10.20;99.90;;;;;;5097191;28;20553;-72
2023/12/28 21:51:14;;;;;;;0.47;0.32;;;10.10;99.90;;;;;;5065031;28;20043;-72
2023/12/28 21:53:39;;;;;;;0.50;0.32;;;10.10;99.90;;;;;;5063124;28;20051;-72
2023/12/28 21:56:05;;;;;;;0.25;0.17;;;10.00;99.90;;;;;;5065331;28;20037;-72
2023/12/28 21:58:31;;;;;;;3.63;0.82;;;10.00;99.90;;;;;;5097254;28;20079;-72
2023/12/28 22:00:56;;;;;;;3.65;0.82;;;10.00;99.90;;;;;;5068505;28;20039;-72
2023/12/28 22:03:22;;;;;;;1.02;0.50;;;9.90;99.90;;;;;;5104692;28;20024;-72
2023/12/28 22:05:48;;;;;;;2.95;0.70;;;10.00;99.90;;;;;;5064223;28;20040;-72
2023/12/28 22:08:14;;;;;;;3.58;0.77;;;9.90;99.90;;;;;;5065499;28;20381;-72
2023/12/28 22:10:40;;;;;;;1.25;0.50;;;9.90;99.90;;;;;;5046364;28;20123;-72
2023/12/28 22:13:05;;;;;;;0.63;0.47;;;9.80;99.90;;;;;;5060666;28;20264;-72
2023/12/28 22:15:34;;;;;;;1.88;0.40;;;9.80;99.90;;;;;;5076448;28;20397;-72
